createdAt,value
2019-03-11T00:02:14.919Z,1.60
2019-03-11T00:04:45.897Z,1.60
2019-03-11T00:09:48.379Z,1.60
2019-03-11T00:14:49.589Z,1.70
2019-03-11T00:17:20.606Z,1.70
2019-03-11T00:19:51.589Z,1.70
2019-03-11T00:22:22.597Z,1.80
2019-03-11T00:24:53.567Z,1.80
2019-03-11T00:27:24.554Z,1.90
2019-03-11T00:29:55.551Z,1.90
2019-03-11T00:32:26.498Z,2.00
2019-03-11T00:34:57.473Z,2.00
2019-03-11T00:37:28.353Z,2.00
2019-03-11T00:39:59.246Z,2.10
2019-03-11T00:42:30.205Z,2.10
2019-03-11T00:45:01.085Z,2.20
2019-03-11T00:47:33.130Z,2.10
2019-03-11T00:50:04.562Z,2.20
2019-03-11T00:52:35.551Z,2.20
2019-03-11T00:55:06.629Z,2.20
2019-03-11T00:57:37.649Z,2.20
2019-03-11T01:00:14.358Z,2.20
2019-03-11T01:02:45.778Z,2.20
2019-03-11T01:05:16.702Z,2.30
2019-03-11T01:07:47.580Z,2.30
2019-03-11T01:10:18.574Z,2.30
2019-03-11T01:12:49.558Z,2.40
2019-03-11T01:17:50.622Z,2.50
2019-03-11T01:20:21.711Z,2.50
2019-03-11T01:22:52.679Z,2.50
2019-03-11T01:25:23.634Z,2.50
2019-03-11T01:27:54.510Z,2.50
2019-03-11T01:30:25.832Z,2.50
2019-03-11T01:32:56.843Z,2.50
2019-03-11T01:35:27.793Z,2.50
2019-03-11T01:37:58.800Z,2.40
2019-03-11T01:40:29.814Z,2.40
2019-03-11T01:43:00.788Z,2.40
2019-03-11T01:45:31.768Z,2.40
2019-03-11T01:48:02.742Z,2.40
2019-03-11T01:50:35.786Z,2.50
2019-03-11T01:53:06.767Z,2.50
2019-03-11T01:55:37.751Z,2.60
2019-03-11T01:58:08.726Z,2.60
2019-03-11T02:00:39.702Z,2.70
2019-03-11T02:03:10.702Z,2.70
2019-03-11T02:05:41.591Z,2.80
2019-03-11T02:08:12.574Z,2.80
2019-03-11T02:10:43.538Z,2.80
2019-03-11T02:13:14.472Z,2.80
2019-03-11T02:15:45.698Z,2.80
2019-03-11T02:18:16.686Z,2.80
2019-03-11T02:23:18.325Z,2.90
2019-03-11T02:25:51.507Z,2.90
2019-03-11T02:28:23.467Z,2.90
2019-03-11T02:30:54.428Z,2.90
2019-03-11T02:33:26.379Z,2.90
2019-03-11T02:35:59.023Z,3.00
2019-03-11T02:38:29.999Z,3.00
2019-03-11T02:41:01.620Z,3.00
2019-03-11T02:43:32.668Z,3.00
2019-03-11T02:46:03.684Z,3.00
2019-03-11T02:48:34.633Z,3.00
2019-03-11T02:51:05.630Z,3.00
2019-03-11T02:53:36.870Z,2.90
2019-03-11T02:56:08.841Z,2.90
2019-03-11T02:58:39.874Z,2.90
2019-03-11T03:01:35.480Z,2.90
2019-03-11T03:04:10.708Z,2.90
2019-03-11T03:06:41.714Z,2.90
2019-03-11T03:09:14.961Z,2.80
2019-03-11T03:11:46.024Z,2.80
2019-03-11T03:14:17.014Z,2.70
2019-03-11T03:16:48.049Z,2.70
2019-03-11T03:19:20.000Z,2.80
2019-03-11T03:21:51.034Z,2.80
2019-03-11T03:26:52.312Z,2.90
2019-03-11T03:29:23.285Z,2.90
2019-03-11T03:31:54.301Z,3.00
2019-03-11T03:34:25.282Z,3.00
2019-03-11T03:36:56.262Z,3.00
2019-03-11T03:39:27.226Z,3.00
2019-03-11T03:41:58.217Z,3.00
2019-03-11T03:44:29.196Z,2.90
2019-03-11T03:47:00.164Z,2.90
2019-03-11T03:49:31.135Z,2.90
2019-03-11T03:52:02.143Z,2.90
2019-03-11T03:54:33.419Z,2.90
2019-03-11T03:57:04.382Z,2.90
2019-03-11T03:59:35.443Z,2.90
2019-03-11T04:02:06.414Z,3.00
2019-03-11T04:04:38.375Z,3.00
2019-03-11T04:07:09.344Z,3.00
2019-03-11T04:09:42.567Z,2.90
2019-03-11T04:12:13.555Z,2.90
2019-03-11T04:14:44.557Z,2.90
2019-03-11T04:17:15.551Z,2.90
2019-03-11T04:19:46.519Z,2.90
2019-03-11T04:22:20.074Z,2.90
2019-03-11T04:27:21.084Z,2.90
2019-03-11T04:29:52.138Z,2.90
2019-03-11T04:34:53.239Z,2.60
2019-03-11T04:37:24.230Z,2.60
2019-03-11T04:39:55.223Z,2.60
2019-03-11T04:42:26.206Z,2.60
2019-03-11T04:44:57.178Z,2.60
2019-03-11T04:47:28.113Z,2.60
2019-03-11T04:50:00.202Z,2.60
2019-03-11T04:52:31.546Z,2.60
2019-03-11T04:55:02.770Z,2.40
2019-03-11T04:57:41.211Z,2.30
2019-03-11T05:00:17.130Z,2.20
2019-03-11T05:02:48.138Z,2.20
2019-03-11T05:05:19.138Z,2.10
2019-03-11T05:07:50.146Z,2.10
2019-03-11T05:10:21.158Z,2.10
2019-03-11T05:15:22.322Z,2.00
2019-03-11T05:17:53.356Z,2.00
2019-03-11T05:20:25.292Z,2.00
2019-03-11T05:22:56.262Z,2.10
2019-03-11T05:25:27.367Z,2.20
2019-03-11T05:27:58.474Z,2.30
2019-03-11T05:30:29.489Z,2.40
2019-03-11T05:33:00.503Z,2.40
2019-03-11T05:35:31.491Z,2.50
2019-03-11T05:38:02.815Z,2.60
2019-03-11T05:40:33.817Z,2.60
2019-03-11T05:43:04.779Z,2.70
2019-03-11T05:45:36.141Z,2.70
2019-03-11T05:48:07.119Z,2.80
2019-03-11T05:50:38.255Z,2.80
2019-03-11T05:53:09.221Z,2.80
2019-03-11T05:55:40.355Z,2.80
2019-03-11T06:00:42.074Z,2.80
2019-03-11T06:03:13.344Z,2.80
2019-03-11T06:05:44.330Z,2.80
2019-03-11T06:08:21.242Z,2.80
2019-03-11T06:10:52.290Z,2.80
2019-03-11T06:13:23.263Z,2.80
2019-03-11T06:15:54.626Z,2.50
2019-03-11T06:18:50.332Z,2.40
2019-03-11T06:21:41.282Z,2.30
2019-03-11T06:24:12.233Z,2.30
2019-03-11T06:26:44.334Z,2.40
2019-03-11T06:29:15.322Z,2.50
2019-03-11T06:31:55.435Z,2.60
2019-03-11T06:34:22.635Z,2.70
2019-03-11T06:36:55.666Z,2.80
2019-03-11T06:39:26.614Z,2.90
2019-03-11T06:41:57.805Z,3.00
2019-03-11T06:44:28.781Z,3.10
2019-03-11T06:46:59.730Z,3.10
2019-03-11T06:49:34.122Z,3.10
2019-03-11T06:52:05.155Z,3.10
2019-03-11T06:54:36.203Z,3.20
2019-03-11T06:57:12.683Z,3.20
2019-03-11T06:59:47.468Z,3.20
2019-03-11T07:02:18.454Z,3.20
2019-03-11T07:04:49.886Z,3.20
2019-03-11T07:07:20.962Z,3.20
2019-03-11T07:09:53.409Z,3.20
2019-03-11T07:12:26.522Z,3.30
2019-03-11T07:14:57.459Z,3.40
2019-03-11T07:17:28.442Z,3.50
2019-03-11T07:19:59.498Z,3.60
2019-03-11T07:22:30.409Z,3.70
2019-03-11T07:25:01.645Z,3.90
2019-03-11T07:27:33.077Z,4.00
2019-03-11T07:30:04.190Z,4.10
2019-03-11T07:32:35.278Z,4.10
2019-03-11T07:35:09.057Z,4.30
2019-03-11T07:37:40.066Z,4.30
2019-03-11T07:40:11.802Z,4.30
2019-03-11T07:42:43.030Z,4.20
2019-03-11T07:45:14.258Z,4.20
2019-03-11T07:47:46.301Z,4.10
2019-03-11T07:50:17.302Z,4.10
2019-03-11T07:52:48.286Z,4.20
2019-03-11T07:55:19.302Z,4.50
2019-03-11T07:57:50.214Z,5.00
2019-03-11T08:00:21.209Z,6.10
2019-03-11T08:02:52.142Z,7.10
2019-03-11T08:05:23.234Z,7.50
2019-03-11T08:07:55.230Z,7.10
2019-03-11T08:15:26.583Z,6.90
2019-03-11T08:17:57.639Z,6.30
2019-03-11T08:20:28.693Z,5.80
2019-03-11T08:22:59.690Z,5.40
2019-03-11T08:25:30.727Z,5.10
2019-03-11T08:28:01.766Z,5.10
2019-03-11T08:30:32.722Z,5.10
2019-03-11T08:33:03.727Z,5.40
2019-03-11T08:35:34.806Z,5.20
2019-03-11T08:38:05.771Z,5.00
2019-03-11T08:40:36.770Z,4.80
2019-03-11T08:43:07.789Z,4.60
2019-03-11T08:45:38.875Z,4.40
2019-03-11T08:48:09.913Z,4.30
2019-03-11T08:50:41.031Z,4.40
2019-03-11T08:53:12.279Z,4.50
2019-03-11T08:55:43.323Z,4.70
2019-03-11T08:58:14.621Z,4.80
2019-03-11T09:00:45.574Z,4.80
2019-03-11T09:03:16.567Z,4.60
2019-03-11T09:05:48.651Z,4.40
2019-03-11T09:08:19.719Z,4.10
2019-03-11T09:10:50.730Z,4.00
2019-03-11T09:13:21.866Z,4.20
2019-03-11T09:15:53.122Z,4.50
2019-03-11T09:18:24.148Z,4.80
2019-03-11T09:20:55.170Z,4.90
2019-03-11T09:23:28.378Z,4.70
2019-03-11T09:25:59.395Z,4.60
2019-03-11T09:28:30.669Z,4.60
2019-03-11T09:31:02.884Z,4.60
2019-03-11T09:33:34.935Z,4.50
2019-03-11T09:36:05.918Z,4.40
2019-03-11T09:38:36.955Z,4.20
2019-03-11T09:41:08.536Z,4.10
2019-03-11T09:43:39.520Z,4.00
2019-03-11T09:46:10.559Z,3.90
2019-03-11T09:48:41.518Z,4.00
2019-03-11T09:51:12.512Z,4.00
2019-03-11T09:53:43.510Z,4.00
2019-03-11T09:56:14.505Z,3.90
2019-03-11T09:58:45.504Z,3.90
2019-03-11T10:01:17.146Z,3.90
2019-03-11T10:03:48.079Z,3.80
2019-03-11T10:06:19.058Z,3.70
2019-03-11T10:08:50.038Z,3.70
2019-03-11T10:11:21.066Z,3.60
2019-03-11T10:17:09.041Z,3.60
2019-03-11T10:19:38.423Z,3.70
2019-03-11T10:22:09.452Z,3.70
2019-03-11T10:24:40.530Z,3.70
2019-03-11T10:27:11.535Z,3.70
2019-03-11T10:29:42.699Z,3.80
2019-03-11T10:32:13.666Z,3.90
2019-03-11T10:34:44.683Z,4.00
2019-03-11T10:37:16.014Z,4.10
2019-03-11T10:39:48.130Z,4.30
2019-03-11T10:42:41.877Z,4.50
2019-03-11T10:45:26.626Z,4.50
2019-03-11T10:47:53.572Z,4.40
2019-03-11T10:50:24.634Z,4.50
2019-03-11T10:52:58.014Z,4.40
2019-03-11T10:55:29.226Z,4.40
2019-03-11T10:58:00.615Z,4.50
2019-03-11T11:00:32.482Z,4.60
2019-03-11T11:03:08.319Z,4.60
2019-03-11T11:05:47.560Z,4.60
2019-03-11T11:08:18.618Z,4.70
2019-03-11T11:10:49.600Z,4.70
2019-03-11T11:13:20.599Z,4.70
2019-03-11T11:15:56.175Z,4.70
2019-03-11T11:18:28.005Z,4.70
2019-03-11T11:20:58.998Z,4.80
2019-03-11T11:23:31.346Z,4.90
2019-03-11T11:26:02.382Z,5.10
2019-03-11T11:28:33.370Z,5.30
2019-03-11T11:31:04.925Z,5.40
2019-03-11T11:33:35.970Z,5.50
2019-03-11T11:36:11.362Z,5.70
2019-03-11T11:38:42.400Z,5.80
2019-03-11T11:41:13.526Z,5.80
2019-03-11T11:46:15.736Z,6.10
2019-03-11T11:48:46.722Z,7.00
2019-03-11T11:51:17.602Z,9.60
2019-03-11T11:53:51.103Z,12.60
2019-03-11T11:56:22.140Z,14.60
2019-03-11T11:58:53.591Z,15.40
2019-03-11T12:01:24.904Z,15.80
2019-03-11T12:03:58.077Z,12.80
2019-03-11T12:08:59.707Z,8.80
2019-03-11T12:11:30.814Z,8.00
2019-03-11T12:14:02.355Z,7.20
2019-03-11T12:16:34.206Z,6.50
2019-03-11T12:21:35.671Z,6.00
2019-03-11T12:24:06.634Z,6.10
2019-03-11T12:26:37.585Z,5.90
2019-03-11T12:29:08.863Z,5.50
2019-03-11T12:31:39.886Z,5.10
2019-03-11T12:34:11.194Z,5.40
2019-03-11T12:36:42.146Z,6.10
2019-03-11T12:39:15.431Z,7.60
2019-03-11T12:41:46.718Z,9.10
2019-03-11T12:44:18.931Z,8.90
2019-03-11T12:46:50.002Z,8.90
2019-03-11T12:49:21.035Z,12.10
2019-03-11T12:51:52.095Z,11.80
2019-03-11T12:54:23.130Z,9.90
2019-03-11T12:56:54.117Z,8.50
2019-03-11T12:59:26.509Z,7.30
2019-03-11T13:01:57.785Z,6.20
2019-03-11T13:04:28.886Z,5.60
2019-03-11T13:06:59.908Z,5.20
2019-03-11T13:09:31.208Z,5.30
2019-03-11T13:12:02.186Z,6.00
2019-03-11T13:14:33.213Z,6.80
2019-03-11T13:17:04.158Z,8.00
2019-03-11T13:19:35.350Z,8.70
2019-03-11T13:22:06.411Z,8.90
2019-03-11T13:24:37.376Z,10.40
2019-03-11T13:27:08.358Z,12.10
2019-03-11T13:29:39.331Z,12.80
2019-03-11T13:32:10.308Z,12.10
2019-03-11T13:34:41.305Z,11.80
2019-03-11T13:37:14.420Z,10.30
2019-03-11T13:39:48.019Z,8.80
2019-03-11T13:42:19.030Z,7.80
2019-03-11T13:44:50.107Z,7.00
2019-03-11T13:47:21.170Z,6.20
2019-03-11T13:49:52.110Z,5.80
2019-03-11T13:52:22.990Z,5.70
2019-03-11T13:54:54.243Z,5.70
2019-03-11T13:57:25.202Z,5.80
2019-03-11T14:00:00.511Z,5.70
2019-03-11T14:02:31.530Z,9.20
2019-03-11T14:05:02.514Z,12.00
2019-03-11T14:07:34.144Z,11.00
2019-03-11T14:10:05.238Z,10.00
2019-03-11T14:12:36.362Z,9.30
2019-03-11T14:15:07.546Z,8.40
2019-03-11T14:17:38.507Z,7.80
2019-03-11T14:20:10.586Z,7.20
2019-03-11T14:22:41.606Z,6.70
2019-03-11T14:25:13.774Z,6.50
2019-03-11T14:27:44.650Z,6.30
2019-03-11T14:30:16.661Z,6.30
2019-03-11T14:32:48.973Z,6.80
2019-03-11T14:35:20.336Z,6.90
2019-03-11T14:37:51.296Z,7.00
2019-03-11T14:40:22.416Z,7.20
2019-03-11T14:42:53.474Z,7.30
2019-03-11T14:45:24.648Z,7.00
2019-03-11T14:47:55.636Z,6.40
2019-03-11T14:50:26.614Z,5.10
2019-03-11T14:52:57.637Z,4.30
2019-03-11T14:55:28.642Z,3.80
2019-03-11T14:58:01.138Z,3.80
2019-03-11T15:00:33.286Z,3.80
2019-03-11T15:03:04.342Z,4.00
2019-03-11T15:05:35.274Z,4.70
2019-03-11T15:08:06.263Z,5.00
2019-03-11T15:10:37.587Z,4.60
2019-03-11T15:13:08.537Z,4.30
2019-03-11T15:15:40.514Z,3.90
2019-03-11T15:18:12.519Z,3.50
2019-03-11T15:20:43.691Z,3.30
2019-03-11T15:23:21.139Z,3.20
2019-03-11T15:25:54.059Z,3.10
2019-03-11T15:28:28.675Z,3.00
2019-03-11T15:31:09.887Z,3.00
2019-03-11T15:38:57.943Z,3.00
2019-03-11T15:43:59.259Z,3.10
2019-03-11T15:49:02.322Z,3.10
2019-03-11T15:51:36.823Z,3.20
2019-03-11T15:54:06.250Z,3.20
2019-03-11T15:56:38.275Z,3.20
2019-03-11T16:01:41.367Z,3.10
2019-03-11T16:04:12.435Z,3.10
2019-03-11T16:06:43.526Z,3.10
2019-03-11T16:11:49.112Z,3.00
2019-03-11T16:14:22.698Z,3.00
2019-03-11T16:16:53.774Z,2.90
2019-03-11T16:19:25.015Z,2.90
2019-03-11T16:21:58.082Z,2.90
2019-03-11T16:24:29.699Z,2.90
2019-03-11T16:27:00.743Z,2.90
2019-03-11T16:29:31.840Z,2.90
2019-03-11T16:34:33.572Z,2.90
2019-03-11T16:37:06.182Z,2.80
2019-03-11T16:42:09.372Z,2.60
2019-03-11T16:44:42.620Z,2.50
2019-03-11T16:47:13.715Z,2.40
2019-03-11T16:49:45.146Z,2.30
2019-03-11T16:52:18.348Z,2.30
2019-03-11T16:54:49.603Z,2.20
2019-03-11T16:57:23.747Z,2.20
2019-03-11T17:00:01.501Z,2.20
2019-03-11T17:05:28.393Z,2.10
2019-03-11T17:08:00.674Z,2.10
2019-03-11T17:16:46.257Z,2.00
2019-03-11T17:19:19.102Z,2.00
2019-03-11T17:22:08.522Z,2.10
2019-03-11T17:31:26.436Z,2.10
2019-03-11T17:36:33.043Z,2.20
2019-03-11T17:39:12.783Z,2.10
2019-03-11T17:44:56.051Z,2.20
2019-03-11T18:04:43.172Z,2.30
2019-03-11T18:08:03.497Z,2.30
2019-03-11T18:38:29.041Z,2.20
2019-03-11T18:41:35.387Z,2.20
2019-03-11T18:48:29.830Z,2.10
2019-03-11T19:19:47.516Z,2.20
2019-03-11T19:23:05.375Z,2.30
2019-03-11T19:26:23.774Z,2.30
2019-03-11T19:39:12.216Z,2.60
2019-03-11T19:44:13.699Z,2.70
2019-03-11T19:46:44.824Z,2.60
2019-03-11T19:49:15.774Z,2.60
2019-03-11T19:51:47.844Z,2.60
2019-03-11T19:54:18.880Z,2.60
2019-03-11T19:56:49.955Z,2.70
2019-03-11T19:59:21.097Z,2.80
2019-03-11T20:01:52.415Z,2.80
2019-03-11T20:04:23.478Z,2.80
2019-03-11T20:06:54.468Z,2.90
2019-03-11T20:09:26.565Z,2.80
2019-03-11T20:11:57.785Z,2.90
2019-03-11T20:14:28.843Z,2.90
2019-03-11T20:16:59.894Z,2.90
2019-03-11T20:19:30.868Z,2.90
2019-03-11T20:22:02.220Z,2.90
2019-03-11T20:24:34.299Z,2.90
2019-03-11T20:27:05.775Z,2.90
2019-03-11T20:29:36.880Z,2.90
2019-03-11T20:32:07.941Z,3.00
2019-03-11T20:34:39.162Z,2.90
2019-03-11T20:37:10.518Z,2.90
2019-03-11T20:39:41.552Z,2.90
2019-03-11T20:42:12.663Z,2.90
2019-03-11T20:44:44.218Z,2.90
2019-03-11T20:47:15.744Z,2.90
2019-03-11T20:52:20.148Z,2.90
2019-03-11T20:54:51.491Z,2.90
2019-03-11T20:57:22.427Z,3.00
2019-03-11T20:59:53.449Z,2.90
2019-03-11T21:02:24.518Z,2.90
2019-03-11T21:04:55.536Z,2.90
2019-03-11T21:07:26.501Z,2.70
2019-03-11T21:09:57.648Z,2.60
2019-03-11T21:12:28.620Z,2.50
2019-03-11T21:14:59.598Z,2.30
2019-03-11T21:17:31.221Z,2.20
2019-03-11T21:22:34.483Z,2.10
2019-03-11T21:25:11.656Z,2.00
2019-03-11T21:27:44.256Z,1.80
2019-03-11T21:30:17.393Z,1.80
2019-03-11T21:32:50.191Z,1.70
2019-03-11T21:35:21.381Z,1.60
2019-03-11T21:37:52.497Z,1.60
2019-03-11T21:40:24.200Z,1.50
2019-03-11T21:42:55.472Z,1.50
2019-03-11T21:45:34.037Z,1.40
2019-03-11T21:47:59.585Z,1.40
2019-03-11T21:50:30.550Z,1.50
2019-03-11T21:53:01.552Z,1.70
2019-03-11T21:55:32.712Z,1.90
2019-03-11T22:00:35.608Z,2.20
2019-03-11T22:03:06.782Z,2.30
2019-03-11T22:05:37.814Z,2.30
2019-03-11T22:08:08.918Z,2.40
2019-03-11T22:10:40.042Z,2.50
2019-03-11T22:13:11.271Z,2.50
2019-03-11T22:15:42.278Z,2.40
2019-03-11T22:18:13.238Z,2.40
2019-03-11T22:20:44.134Z,2.40
2019-03-11T22:23:15.093Z,2.40
2019-03-11T22:25:46.512Z,2.40
2019-03-11T22:28:17.486Z,2.40
2019-03-11T22:30:48.454Z,2.40
2019-03-11T22:33:19.686Z,2.40
2019-03-11T22:35:50.786Z,2.40
2019-03-11T22:38:21.762Z,2.50
2019-03-11T22:40:52.894Z,2.50
2019-03-11T22:45:54.369Z,2.20
2019-03-11T22:48:25.342Z,2.10
2019-03-11T22:50:56.310Z,1.90
2019-03-11T22:53:27.282Z,1.90
2019-03-11T22:55:58.373Z,1.80
2019-03-11T22:58:29.287Z,1.60
2019-03-11T23:01:01.766Z,1.50
2019-03-11T23:03:34.525Z,1.40
2019-03-11T23:06:05.594Z,1.40
2019-03-11T23:08:36.638Z,1.20
2019-03-11T23:11:07.912Z,1.20
2019-03-11T23:13:38.878Z,1.10
2019-03-11T23:16:10.130Z,1.10
2019-03-11T23:18:41.102Z,1.00
2019-03-11T23:21:12.086Z,1.00
2019-03-11T23:23:43.048Z,0.90
2019-03-11T23:26:14.106Z,0.80
2019-03-11T23:28:45.138Z,0.80
2019-03-11T23:31:16.198Z,0.80
2019-03-11T23:33:47.190Z,0.70
2019-03-11T23:36:18.174Z,0.60
2019-03-11T23:38:49.126Z,0.60
2019-03-11T23:41:20.138Z,0.50
2019-03-11T23:43:51.090Z,0.60
2019-03-11T23:46:22.139Z,0.60
2019-03-11T23:48:53.081Z,0.80
2019-03-11T23:51:24.617Z,0.80
2019-03-11T23:53:55.586Z,0.90
2019-03-11T23:56:26.601Z,1.00
2019-03-11T23:58:57.563Z,1.10
